Time;durP1;ratioP1;P1;durP2;ratioP2;P2;SDS_P1;SDS_P2;PMS_P1;PMS_P2;Temp;Humidity;BMP_temperature;BMP_pressure;BME280_temperature;BME280_humidity;BME280_pressure;Samples;Min_cycle;Max_cycle;Signal;HPM_P1;HPM_P2
2021/11/13 00:00:08;;;;;;;58.55;32.28;;;;;;;;;;5101785;28;20410;-66
2021/11/13 00:02:34;;;;;;;59.50;31.90;;;;;;;;;;5121372;28;20283;-66
2021/11/13 00:05:00;;;;;;;60.17;32.65;;;;;;;;;;5084571;28;20067;-66
2021/11/13 00:07:27;;;;;;;51.90;30.45;;;;;;;;;;5121629;28;20059;-66
2021/11/13 00:09:53;;;;;;;59.10;32.10;;;;;;;;;;5106977;28;20050;-66
2021/11/13 00:12:19;;;;;;;56.03;31.67;;;;;;;;;;5125455;28;20048;-66
2021/11/13 00:14:46;;;;;;;47.88;29.15;;;;;;;;;;5106365;28;20043;-66
2021/11/13 00:17:13;;;;;;;69.40;31.83;;;;;;;;;;5120327;28;20048;-66
2021/11/13 00:19:39;;;;;;;59.13;31.73;;;;;;;;;;5091084;28;20048;-66
2021/11/13 00:22:06;;;;;;;58.63;32.47;;;;;;;;;;5115819;28;20036;-66
2021/11/13 00:24:32;;;;;;;68.97;34.55;;;;;;;;;;5119702;28;20152;-66
2021/11/13 00:26:58;;;;;;;66.57;35.50;;;;;;;;;;5117240;28;20181;-67
2021/11/13 00:29:24;;;;;;;57.20;32.03;;;;;;;;;;5118026;28;20062;-66
2021/11/13 00:31:53;;;;;;;72.70;35.80;;;;;;;;;;5125473;28;20122;-67
2021/11/13 00:34:19;;;;;;;71.30;35.67;;;;;;;;;;5118781;28;20499;-66
2021/11/13 00:36:45;;;;;;;64.88;34.13;;;;;;;;;;5104908;28;20043;-66
2021/11/13 00:39:12;;;;;;;63.83;33.55;;;;;;;;;;5125153;28;20518;-65
2021/11/13 00:41:38;;;;;;;58.67;33.22;;;;;;;;;;5110374;28;20044;-65
2021/11/13 00:44:05;;;;;;;57.03;32.47;;;;;;;;;;5125792;28;20122;-66
2021/11/13 00:46:31;;;;;;;66.55;34.55;;;;;;;;;;5111207;28;20058;-66
2021/11/13 00:48:57;;;;;;;64.43;36.42;;;;;;;;;;5125758;28;20058;-66
2021/11/13 00:51:23;;;;;;;62.85;35.40;;;;;;;;;;5097032;28;20047;-65
2021/11/13 00:53:50;;;;;;;70.95;36.95;;;;;;;;;;5119857;28;20067;-65
2021/11/13 00:56:16;;;;;;;63.20;35.33;;;;;;;;;;5112814;28;20074;-65
2021/11/13 00:58:42;;;;;;;71.10;36.28;;;;;;;;;;5100331;28;20047;-66
2021/11/13 01:01:08;;;;;;;67.95;35.85;;;;;;;;;;5106231;28;20096;-66
2021/11/13 01:03:35;;;;;;;69.35;37.45;;;;;;;;;;5117558;28;20357;-66
2021/11/13 01:06:01;;;;;;;60.13;34.67;;;;;;;;;;5115925;28;20042;-65
2021/11/13 01:08:27;;;;;;;69.78;36.17;;;;;;;;;;5110528;28;20131;-66
2021/11/13 01:10:53;;;;;;;51.30;30.95;;;;;;;;;;5110680;28;20103;-66
2021/11/13 01:13:22;;;;;;;58.80;34.72;;;;;;;;;;5111985;28;20062;-66
2021/11/13 01:15:48;;;;;;;65.88;34.90;;;;;;;;;;5118473;28;20058;-66
2021/11/13 01:18:15;;;;;;;64.25;35.65;;;;;;;;;;5125949;28;20040;-66
2021/11/13 01:20:41;;;;;;;64.25;34.65;;;;;;;;;;5118117;28;20063;-66
2021/11/13 01:23:07;;;;;;;64.22;33.22;;;;;;;;;;5124891;28;20079;-66
2021/11/13 01:25:33;;;;;;;52.95;30.05;;;;;;;;;;5124933;28;20123;-65
2021/11/13 01:28:00;;;;;;;60.80;34.25;;;;;;;;;;5125034;28;20125;-65
2021/11/13 01:30:26;;;;;;;55.72;32.30;;;;;;;;;;5125306;28;20051;-65
2021/11/13 01:32:52;;;;;;;58.15;33.60;;;;;;;;;;5091281;28;20054;-66
2021/11/13 01:35:19;;;;;;;61.70;33.85;;;;;;;;;;5117216;28;20044;-65
2021/11/13 01:37:45;;;;;;;63.33;35.15;;;;;;;;;;5101478;28;20047;-66
2021/11/13 01:40:13;;;;;;;57.67;32.25;;;;;;;;;;5119437;28;20118;-65
2021/11/13 01:42:39;;;;;;;61.22;34.15;;;;;;;;;;5115415;28;20043;-65
2021/11/13 01:45:06;;;;;;;53.17;31.42;;;;;;;;;;5124014;28;20032;-65
2021/11/13 01:47:32;;;;;;;60.90;33.83;;;;;;;;;;5124378;28;20055;-65
2021/11/13 01:49:59;;;;;;;65.93;36.50;;;;;;;;;;5124788;28;20032;-65
2021/11/13 01:52:25;;;;;;;53.58;32.97;;;;;;;;;;5098406;28;20048;-66
2021/11/13 01:54:51;;;;;;;54.70;32.50;;;;;;;;;;5110298;28;20040;-66
2021/11/13 01:57:22;;;;;;;61.53;34.58;;;;;;;;;;5125096;28;20047;-65
2021/11/13 01:59:50;;;;;;;60.92;34.47;;;;;;;;;;5106483;28;20043;-65
2021/11/13 02:02:17;;;;;;;58.65;34.15;;;;;;;;;;5119237;28;20123;-65
2021/11/13 02:04:43;;;;;;;54.63;31.23;;;;;;;;;;5120532;28;20044;-65
2021/11/13 02:07:09;;;;;;;68.45;35.55;;;;;;;;;;5124564;28;20047;-64
2021/11/13 02:09:36;;;;;;;59.60;33.70;;;;;;;;;;5108593;28;20353;-64
2021/11/13 02:12:02;;;;;;;54.42;32.28;;;;;;;;;;5114290;28;20082;-65
2021/11/13 02:14:29;;;;;;;58.40;33.58;;;;;;;;;;5107396;28;20070;-64
2021/11/13 02:16:55;;;;;;;56.95;32.13;;;;;;;;;;5117684;28;20111;-65
2021/11/13 02:19:21;;;;;;;50.53;30.80;;;;;;;;;;5122157;28;20047;-65
2021/11/13 02:21:48;;;;;;;48.78;29.52;;;;;;;;;;5124532;28;20129;-65
2021/11/13 02:24:14;;;;;;;53.60;32.05;;;;;;;;;;5124302;28;20099;-65
2021/11/13 02:26:40;;;;;;;51.67;31.77;;;;;;;;;;5123706;28;20115;-65
2021/11/13 02:29:07;;;;;;;47.97;30.75;;;;;;;;;;5124370;28;20108;-65
2021/11/13 02:31:37;;;;;;;48.58;29.92;;;;;;;;;;5110836;28;20039;-65
2021/11/13 02:34:04;;;;;;;54.50;30.33;;;;;;;;;;5086519;28;20051;-65
2021/11/13 02:36:31;;;;;;;51.38;29.83;;;;;;;;;;5110063;28;20074;-65
2021/11/13 02:38:58;;;;;;;51.92;30.58;;;;;;;;;;5113286;28;20048;-65
2021/11/13 02:41:27;;;;;;;49.65;29.90;;;;;;;;;;5118726;28;20048;-65
2021/11/13 02:43:53;;;;;;;50.22;28.17;;;;;;;;;;5124222;28;20043;-65
2021/11/13 02:46:19;;;;;;;43.72;28.92;;;;;;;;;;5121062;28;20110;-65
2021/11/13 02:48:45;;;;;;;48.65;27.67;;;;;;;;;;5103418;28;20055;-65
2021/11/13 02:51:12;;;;;;;39.92;24.65;;;;;;;;;;5113763;28;20071;-65
2021/11/13 02:53:38;;;;;;;41.15;25.67;;;;;;;;;;5117906;28;20039;-65
2021/11/13 02:56:06;;;;;;;42.85;26.40;;;;;;;;;;5104848;28;20095;-65
2021/11/13 02:58:33;;;;;;;37.60;24.13;;;;;;;;;;5108027;28;20048;-65
2021/11/13 03:01:00;;;;;;;37.17;24.70;;;;;;;;;;5112822;28;20039;-65
2021/11/13 03:03:27;;;;;;;38.33;24.58;;;;;;;;;;5105236;28;20079;-65
2021/11/13 03:05:57;;;;;;;41.60;25.05;;;;;;;;;;5122487;28;20047;-65
2021/11/13 03:08:28;;;;;;;42.95;26.27;;;;;;;;;;5116540;28;20103;-65
2021/11/13 03:10:55;;;;;;;36.72;24.23;;;;;;;;;;5126917;28;20111;-65
2021/11/13 03:13:21;;;;;;;36.35;23.27;;;;;;;;;;5127802;28;20049;-65
2021/11/13 03:15:48;;;;;;;42.27;23.73;;;;;;;;;;5108040;28;20809;-65
2021/11/13 03:18:14;;;;;;;38.60;24.70;;;;;;;;;;5127682;28;20043;-65
2021/11/13 03:20:41;;;;;;;39.40;25.42;;;;;;;;;;5114724;28;20142;-65
2021/11/13 03:23:08;;;;;;;43.20;25.38;;;;;;;;;;5125668;28;20525;-65
2021/11/13 03:25:39;;;;;;;34.25;22.45;;;;;;;;;;5126141;28;20056;-65
2021/11/13 03:28:07;;;;;;;34.45;22.58;;;;;;;;;;5126965;28;20806;-65
2021/11/13 03:30:33;;;;;;;34.28;21.73;;;;;;;;;;5127275;28;20035;-65
2021/11/13 03:33:00;;;;;;;38.00;24.52;;;;;;;;;;5126488;28;20118;-65
2021/11/13 03:35:30;;;;;;;33.97;22.38;;;;;;;;;;5121556;28;20083;-65
2021/11/13 03:37:58;;;;;;;33.22;22.10;;;;;;;;;;5121086;28;20074;-65
2021/11/13 03:40:24;;;;;;;40.13;23.88;;;;;;;;;;5126389;28;20039;-65
2021/11/13 03:42:50;;;;;;;34.80;23.70;;;;;;;;;;5127000;28;20119;-65
2021/11/13 03:45:16;;;;;;;34.28;23.67;;;;;;;;;;5115354;28;20103;-65
2021/11/13 03:47:43;;;;;;;35.95;23.60;;;;;;;;;;5104864;28;20040;-65
2021/11/13 03:50:09;;;;;;;34.42;22.35;;;;;;;;;;5111153;28;20047;-65
2021/11/13 03:52:35;;;;;;;36.05;23.58;;;;;;;;;;5109665;28;20128;-65
2021/11/13 03:55:01;;;;;;;34.97;23.67;;;;;;;;;;5120644;28;20126;-65
2021/11/13 03:57:27;;;;;;;38.92;24.73;;;;;;;;;;5126753;28;20123;-65
2021/11/13 03:59:55;;;;;;;42.78;25.88;;;;;;;;;;5126589;28;20047;-65
2021/11/13 04:02:21;;;;;;;43.03;24.67;;;;;;;;;;5122591;28;20067;-65
2021/11/13 04:04:47;;;;;;;43.55;27.27;;;;;;;;;;5118860;28;20387;-65
2021/11/13 04:07:13;;;;;;;40.20;25.77;;;;;;;;;;5094040;28;20056;-65
2021/11/13 04:09:39;;;;;;;41.70;25.77;;;;;;;;;;5099497;28;20126;-65
2021/11/13 04:12:06;;;;;;;43.95;27.05;;;;;;;;;;5120348;28;20561;-65
2021/11/13 04:14:36;;;;;;;39.90;26.65;;;;;;;;;;5126406;28;20074;-65
2021/11/13 04:17:02;;;;;;;49.00;29.17;;;;;;;;;;5126122;28;20067;-65
2021/11/13 04:19:28;;;;;;;43.63;27.17;;;;;;;;;;5117657;28;20112;-65
2021/11/13 04:21:55;;;;;;;48.67;28.60;;;;;;;;;;5106834;28;20503;-65
2021/11/13 04:24:21;;;;;;;50.42;28.02;;;;;;;;;;5104864;28;20043;-65
2021/11/13 04:26:47;;;;;;;48.85;29.42;;;;;;;;;;5107389;28;20051;-65
2021/11/13 04:29:13;;;;;;;48.45;28.50;;;;;;;;;;5126070;28;20043;-64
2021/11/13 04:31:40;;;;;;;52.28;30.40;;;;;;;;;;5107658;28;20201;-64
2021/11/13 04:34:12;;;;;;;48.50;30.67;;;;;;;;;;5126054;28;20067;-64
2021/11/13 04:36:39;;;;;;;46.55;28.67;;;;;;;;;;5124908;28;20048;-64
2021/11/13 04:39:06;;;;;;;53.42;30.63;;;;;;;;;;5126233;28;20047;-65
2021/11/13 04:41:33;;;;;;;55.40;31.25;;;;;;;;;;5125277;28;20036;-65
2021/11/13 04:43:59;;;;;;;51.70;31.25;;;;;;;;;;5096934;28;20047;-65
2021/11/13 04:46:25;;;;;;;53.38;32.17;;;;;;;;;;5102895;28;20086;-65
2021/11/13 04:48:51;;;;;;;51.78;32.70;;;;;;;;;;5098288;28;20048;-64
2021/11/13 04:51:18;;;;;;;52.22;30.02;;;;;;;;;;5110459;28;20063;-65
2021/11/13 04:53:44;;;;;;;51.45;30.20;;;;;;;;;;5102477;28;20075;-64
2021/11/13 04:56:10;;;;;;;54.55;30.35;;;;;;;;;;5113758;28;20036;-64
2021/11/13 04:58:36;;;;;;;48.55;30.95;;;;;;;;;;5118267;28;20103;-65
2021/11/13 05:01:03;;;;;;;48.17;30.65;;;;;;;;;;5105147;28;20265;-65
2021/11/13 05:03:29;;;;;;;51.53;31.73;;;;;;;;;;5104861;28;20569;-65
2021/11/13 05:05:55;;;;;;;46.97;29.42;;;;;;;;;;5094953;28;20100;-65
2021/11/13 05:08:21;;;;;;;48.58;29.30;;;;;;;;;;5107167;28;20104;-65
2021/11/13 05:10:49;;;;;;;50.97;33.03;;;;;;;;;;5106394;28;20035;-64
2021/11/13 05:13:16;;;;;;;55.17;32.33;;;;;;;;;;5125441;28;20035;-64
2021/11/13 05:15:43;;;;;;;50.97;32.55;;;;;;;;;;5106740;28;20050;-64
2021/11/13 05:18:09;;;;;;;53.33;33.05;;;;;;;;;;5125184;28;20050;-65
2021/11/13 05:20:35;;;;;;;54.20;31.30;;;;;;;;;;5123892;28;20103;-64
2021/11/13 05:23:02;;;;;;;53.90;33.00;;;;;;;;;;5106451;28;20071;-64
2021/11/13 05:25:28;;;;;;;52.78;32.88;;;;;;;;;;5124840;28;20383;-64
2021/11/13 05:27:54;;;;;;;52.45;33.05;;;;;;;;;;5124807;28;20057;-64
2021/11/13 05:30:21;;;;;;;55.22;33.45;;;;;;;;;;5106473;28;20043;-64
2021/11/13 05:32:48;;;;;;;58.58;32.85;;;;;;;;;;5124821;28;20039;-64
2021/11/13 05:35:14;;;;;;;61.50;33.35;;;;;;;;;;5105709;28;20044;-64
2021/11/13 05:37:40;;;;;;;59.78;34.08;;;;;;;;;;5106657;28;20051;-65
2021/11/13 05:40:07;;;;;;;61.08;34.17;;;;;;;;;;5123678;28;20160;-65
2021/11/13 05:42:37;;;;;;;61.63;34.35;;;;;;;;;;5124818;28;20050;-65
2021/11/13 05:45:05;;;;;;;63.80;33.70;;;;;;;;;;5114329;28;20036;-65
2021/11/13 05:47:31;;;;;;;66.43;35.92;;;;;;;;;;5089108;28;20121;-65
2021/11/13 05:49:57;;;;;;;73.60;36.30;;;;;;;;;;5102549;28;20081;-65
2021/11/13 05:52:23;;;;;;;68.63;36.22;;;;;;;;;;5118919;28;20036;-65
2021/11/13 05:54:50;;;;;;;66.40;35.08;;;;;;;;;;5123949;28;20051;-65
2021/11/13 05:57:16;;;;;;;72.72;37.65;;;;;;;;;;5124669;28;20075;-65
2021/11/13 05:59:42;;;;;;;73.70;38.47;;;;;;;;;;5124538;28;20079;-65
2021/11/13 06:02:08;;;;;;;63.65;36.00;;;;;;;;;;5105983;28;20039;-65
2021/11/13 06:04:34;;;;;;;73.95;38.20;;;;;;;;;;5105789;28;20048;-65
2021/11/13 06:07:01;;;;;;;76.70;38.13;;;;;;;;;;5106096;28;20491;-65
2021/11/13 06:09:27;;;;;;;72.68;37.30;;;;;;;;;;5106404;28;20149;-65
2021/11/13 06:11:54;;;;;;;68.93;38.95;;;;;;;;;;5106292;28;20138;-65
2021/11/13 06:14:20;;;;;;;70.15;35.75;;;;;;;;;;5124289;28;20039;-65
2021/11/13 06:16:46;;;;;;;75.22;37.80;;;;;;;;;;5105903;28;20079;-65
2021/11/13 06:19:12;;;;;;;73.72;38.83;;;;;;;;;;5124508;28;20511;-65
2021/11/13 06:21:38;;;;;;;74.70;37.88;;;;;;;;;;5123435;28;20146;-65
2021/11/13 06:24:07;;;;;;;77.65;39.55;;;;;;;;;;5124704;28;20040;-65
2021/11/13 06:26:34;;;;;;;75.05;36.70;;;;;;;;;;5123973;28;20056;-65
2021/11/13 06:29:00;;;;;;;66.82;35.20;;;;;;;;;;5124038;28;20079;-65
2021/11/13 06:31:26;;;;;;;80.00;39.00;;;;;;;;;;5111083;28;20091;-65
2021/11/13 06:33:52;;;;;;;72.07;37.63;;;;;;;;;;5125828;28;20039;-65
2021/11/13 06:36:18;;;;;;;76.47;39.55;;;;;;;;;;5128020;28;20091;-66
2021/11/13 06:38:44;;;;;;;82.82;41.05;;;;;;;;;;5128897;28;20100;-65
2021/11/13 06:41:10;;;;;;;81.15;40.47;;;;;;;;;;5127538;28;20564;-65
2021/11/13 06:43:36;;;;;;;67.38;38.40;;;;;;;;;;5128172;28;20055;-65
2021/11/13 06:46:02;;;;;;;80.85;39.55;;;;;;;;;;5127150;28;20108;-65
2021/11/13 06:48:30;;;;;;;75.82;38.53;;;;;;;;;;5095236;28;20052;-65
2021/11/13 06:50:56;;;;;;;79.75;39.15;;;;;;;;;;5118372;28;20053;-65
2021/11/13 06:53:22;;;;;;;73.38;37.38;;;;;;;;;;5116010;28;20039;-65
2021/11/13 06:55:49;;;;;;;85.85;42.88;;;;;;;;;;5119431;28;20071;-65
2021/11/13 06:58:15;;;;;;;65.97;37.55;;;;;;;;;;5126864;28;20503;-65
2021/11/13 07:00:42;;;;;;;79.88;38.72;;;;;;;;;;5127557;28;20083;-65
2021/11/13 07:03:08;;;;;;;77.15;39.50;;;;;;;;;;5089084;28;20051;-65
2021/11/13 07:05:34;;;;;;;75.55;38.20;;;;;;;;;;5122612;28;20099;-65
2021/11/13 07:08:00;;;;;;;75.22;38.28;;;;;;;;;;5109520;28;20059;-64
2021/11/13 07:10:28;;;;;;;77.80;40.13;;;;;;;;;;5108658;28;20111;-65
2021/11/13 07:12:54;;;;;;;73.82;38.78;;;;;;;;;;5127512;28;20039;-65
2021/11/13 07:15:20;;;;;;;82.57;39.13;;;;;;;;;;5108095;28;20111;-65
2021/11/13 07:17:46;;;;;;;74.20;36.75;;;;;;;;;;5124092;28;20055;-65
2021/11/13 07:20:13;;;;;;;74.50;37.28;;;;;;;;;;5117461;28;20044;-64
2021/11/13 07:22:40;;;;;;;71.38;39.33;;;;;;;;;;5108994;28;20114;-65
2021/11/13 07:25:12;;;;;;;75.97;39.50;;;;;;;;;;5127064;28;20070;-64
2021/11/13 07:27:39;;;;;;;74.65;39.00;;;;;;;;;;5126698;28;20094;-65
2021/11/13 07:30:05;;;;;;;75.45;38.17;;;;;;;;;;5126169;28;20031;-65
2021/11/13 07:32:32;;;;;;;81.05;38.55;;;;;;;;;;5124336;28;20035;-64
2021/11/13 07:34:58;;;;;;;79.50;37.35;;;;;;;;;;5126858;28;20071;-64
2021/11/13 07:37:27;;;;;;;72.10;36.58;;;;;;;;;;5126985;28;20075;-64
2021/11/13 07:39:54;;;;;;;77.65;36.97;;;;;;;;;;5103610;28;20059;-64
2021/11/13 07:42:20;;;;;;;75.15;37.92;;;;;;;;;;5115940;28;20048;-64
2021/11/13 07:44:47;;;;;;;69.95;37.35;;;;;;;;;;5122254;28;20039;-64
2021/11/13 07:47:13;;;;;;;71.93;35.73;;;;;;;;;;5112107;28;20416;-65
2021/11/13 07:49:40;;;;;;;73.45;38.60;;;;;;;;;;5110432;28;20297;-64
2021/11/13 07:52:06;;;;;;;72.28;37.60;;;;;;;;;;5110162;28;20054;-65
2021/11/13 07:54:32;;;;;;;73.55;36.83;;;;;;;;;;5119913;28;20071;-65
2021/11/13 07:56:59;;;;;;;73.53;36.50;;;;;;;;;;5126553;28;20051;-64
2021/11/13 07:59:25;;;;;;;72.22;36.67;;;;;;;;;;5126092;28;20107;-64
2021/11/13 08:01:51;;;;;;;72.68;37.70;;;;;;;;;;5125888;28;20052;-65
2021/11/13 08:04:17;;;;;;;75.93;38.08;;;;;;;;;;5118564;28;20032;-65
2021/11/13 08:06:43;;;;;;;78.95;38.85;;;;;;;;;;5091867;28;20047;-65
2021/11/13 08:09:09;;;;;;;72.85;37.60;;;;;;;;;;5119839;28;20051;-65
2021/11/13 08:11:36;;;;;;;70.72;36.72;;;;;;;;;;5108062;28;20087;-64
2021/11/13 08:14:02;;;;;;;70.45;36.35;;;;;;;;;;5121298;28;20558;-64
2021/11/13 08:16:28;;;;;;;66.93;34.42;;;;;;;;;;5105735;28;20071;-65
2021/11/13 08:18:54;;;;;;;64.22;34.90;;;;;;;;;;5113933;28;20032;-64
2021/11/13 08:21:21;;;;;;;63.83;34.30;;;;;;;;;;5122420;28;20067;-64
2021/11/13 08:23:47;;;;;;;61.90;35.53;;;;;;;;;;5124733;28;20039;-64
2021/11/13 08:26:14;;;;;;;61.90;34.35;;;;;;;;;;5125518;28;20099;-66
2021/11/13 08:28:40;;;;;;;59.53;35.28;;;;;;;;;;5107421;28;20047;-64
2021/11/13 08:31:06;;;;;;;65.15;34.03;;;;;;;;;;5125175;28;20047;-65
2021/11/13 08:33:33;;;;;;;60.90;33.00;;;;;;;;;;5118314;28;20062;-66
2021/11/13 08:35:59;;;;;;;54.55;33.10;;;;;;;;;;5125181;28;20051;-64
2021/11/13 08:38:25;;;;;;;68.88;35.00;;;;;;;;;;5117589;28;20070;-64
2021/11/13 08:40:53;;;;;;;61.35;33.28;;;;;;;;;;5094198;28;20083;-65
2021/11/13 08:43:20;;;;;;;60.88;33.65;;;;;;;;;;5120234;28;20071;-65
2021/11/13 08:45:47;;;;;;;67.25;32.38;;;;;;;;;;5114424;28;20104;-65
2021/11/13 08:48:13;;;;;;;56.75;32.50;;;;;;;;;;5114719;28;20383;-65
2021/11/13 08:50:39;;;;;;;62.28;34.00;;;;;;;;;;5107200;28;20063;-65
2021/11/13 08:53:06;;;;;;;57.10;31.25;;;;;;;;;;5116918;28;20059;-65
2021/11/13 08:55:33;;;;;;;54.67;31.20;;;;;;;;;;5107805;28;20063;-65
2021/11/13 08:58:00;;;;;;;59.63;33.17;;;;;;;;;;5113830;28;20064;-65
2021/11/13 09:00:34;;;;;;;58.25;32.95;;;;;;;;;;5114382;28;20043;-65
2021/11/13 09:03:01;;;;;;;59.05;32.67;;;;;;;;;;5094934;28;20071;-65
2021/11/13 09:05:28;;;;;;;59.92;31.10;;;;;;;;;;5115025;28;20096;-64
2021/11/13 09:07:54;;;;;;;50.03;30.77;;;;;;;;;;5121824;28;20103;-65
2021/11/13 09:10:21;;;;;;;50.08;30.80;;;;;;;;;;5112063;28;20314;-64
2021/11/13 09:12:47;;;;;;;58.05;30.85;;;;;;;;;;5107299;28;20044;-65
2021/11/13 09:15:17;;;;;;;52.90;32.20;;;;;;;;;;5117995;28;20071;-64
2021/11/13 09:17:43;;;;;;;49.08;30.52;;;;;;;;;;5123745;28;20032;-65
2021/11/13 09:20:10;;;;;;;50.10;30.35;;;;;;;;;;5114114;28;20043;-64
2021/11/13 09:22:36;;;;;;;55.05;32.85;;;;;;;;;;5111126;28;20115;-65
2021/11/13 09:25:08;;;;;;;57.20;31.70;;;;;;;;;;5115095;28;20521;-64
2021/11/13 09:27:34;;;;;;;50.25;30.65;;;;;;;;;;5121021;28;20044;-65
2021/11/13 09:30:00;;;;;;;46.80;30.30;;;;;;;;;;5107753;28;20126;-64
2021/11/13 09:32:26;;;;;;;53.90;30.50;;;;;;;;;;5114549;28;20161;-64
2021/11/13 09:34:53;;;;;;;47.90;29.63;;;;;;;;;;5097592;28;20266;-64
2021/11/13 09:37:19;;;;;;;46.38;29.15;;;;;;;;;;5114097;28;20071;-64
2021/11/13 09:39:45;;;;;;;50.47;28.67;;;;;;;;;;5110431;28;20048;-64
2021/11/13 09:42:11;;;;;;;46.22;28.40;;;;;;;;;;5117489;28;20048;-64
2021/11/13 09:44:37;;;;;;;50.63;29.48;;;;;;;;;;5097565;28;20043;-64
2021/11/13 09:47:05;;;;;;;50.25;29.67;;;;;;;;;;5094660;28;20067;-64
2021/11/13 09:49:31;;;;;;;46.85;28.27;;;;;;;;;;5094166;28;20043;-65
2021/11/13 09:51:58;;;;;;;51.45;28.83;;;;;;;;;;5097667;28;20501;-65
2021/11/13 09:54:25;;;;;;;46.20;28.73;;;;;;;;;;5090041;28;20052;-64
2021/11/13 09:56:52;;;;;;;46.55;28.40;;;;;;;;;;5102504;28;20036;-64
2021/11/13 09:59:18;;;;;;;44.05;27.92;;;;;;;;;;5093862;28;20051;-64
2021/11/13 10:01:44;;;;;;;41.83;27.83;;;;;;;;;;5082199;28;20040;-64
2021/11/13 10:04:11;;;;;;;45.20;27.90;;;;;;;;;;5090453;28;20097;-65
2021/11/13 10:06:38;;;;;;;48.45;28.00;;;;;;;;;;5096409;28;20041;-64
2021/11/13 10:09:04;;;;;;;41.63;27.02;;;;;;;;;;5092711;28;20054;-63
2021/11/13 10:11:30;;;;;;;35.58;25.73;;;;;;;;;;5100597;28;20369;-64
2021/11/13 10:13:57;;;;;;;37.60;25.50;;;;;;;;;;5094191;28;20058;-64
2021/11/13 10:16:33;;;;;;;44.05;27.13;;;;;;;;;;5092780;28;20117;-64
2021/11/13 10:19:03;;;;;;;51.20;27.23;;;;;;;;;;5096693;28;20053;-74
2021/11/13 10:21:30;;;;;;;39.40;25.95;;;;;;;;;;5096208;28;20071;-71
2021/11/13 10:23:59;;;;;;;39.35;25.55;;;;;;;;;;5096312;28;20443;-71
2021/11/13 10:26:28;;;;;;;44.50;26.65;;;;;;;;;;5102126;28;20043;-72
2021/11/13 10:28:54;;;;;;;39.17;26.92;;;;;;;;;;5091837;28;20052;-63
2021/11/13 10:31:29;;;;;;;30.80;23.70;;;;;;;;;;5092627;28;20040;-63
2021/11/13 10:33:57;;;;;;;33.97;24.00;;;;;;;;;;5096561;28;20071;-63
2021/11/13 10:36:31;;;;;;;31.05;23.33;;;;;;;;;;5090549;28;20119;-63
2021/11/13 10:38:58;;;;;;;34.20;23.98;;;;;;;;;;5098983;28;20048;-63
2021/11/13 10:41:24;;;;;;;34.00;23.50;;;;;;;;;;5096006;28;20048;-63
2021/11/13 10:43:51;;;;;;;27.30;21.52;;;;;;;;;;5096504;28;20040;-63
2021/11/13 10:46:21;;;;;;;30.10;23.05;;;;;;;;;;5101050;28;20076;-63
2021/11/13 10:48:50;;;;;;;28.17;22.10;;;;;;;;;;5113204;28;20115;-63
2021/11/13 10:51:18;;;;;;;32.60;24.35;;;;;;;;;;5118351;28;20079;-63
2021/11/13 10:53:45;;;;;;;28.10;21.88;;;;;;;;;;5092863;28;20059;-63
2021/11/13 10:56:17;;;;;;;30.33;21.57;;;;;;;;;;5104556;28;20104;-63
2021/11/13 10:58:58;;;;;;;27.85;21.08;;;;;;;;;;5115450;28;20138;-63
2021/11/13 11:01:24;;;;;;;29.83;22.27;;;;;;;;;;5122694;28;20058;-63
2021/11/13 11:03:51;;;;;;;31.83;22.77;;;;;;;;;;5117432;28;20048;-62
2021/11/13 11:06:31;;;;;;;26.83;20.58;;;;;;;;;;5125524;28;20096;-63
2021/11/13 11:08:58;;;;;;;30.17;21.45;;;;;;;;;;5120449;28;20048;-63
2021/11/13 11:11:30;;;;;;;27.40;20.80;;;;;;;;;;5119075;28;20119;-69
2021/11/13 11:14:01;;;;;;;24.90;20.05;;;;;;;;;;5101421;28;20047;-66
2021/11/13 11:16:29;;;;;;;24.80;19.50;;;;;;;;;;5116457;28;20075;-67
2021/11/13 11:18:57;;;;;;;25.63;19.50;;;;;;;;;;5103549;28;20081;-68
2021/11/13 11:21:23;;;;;;;;;;;;;;;;;;5100666;28;20048;-68
2021/11/13 11:24:07;;;;;;;27.63;20.45;;;;;;;;;;5120110;28;19920;-67
2021/11/13 11:26:33;;;;;;;27.67;19.60;;;;;;;;;;5105874;28;20134;-67
2021/11/13 11:28:59;;;;;;;26.92;19.20;;;;;;;;;;5120179;28;20043;-66
2021/11/13 11:31:38;;;;;;;25.73;19.57;;;;;;;;;;5097224;28;20044;-66
2021/11/13 11:34:04;;;;;;;25.95;19.33;;;;;;;;;;5095319;28;20059;-66
2021/11/13 11:36:31;;;;;;;28.02;19.98;;;;;;;;;;5097796;28;20048;-66
2021/11/13 11:38:57;;;;;;;28.05;19.85;;;;;;;;;;5119380;28;20078;-66
2021/11/13 11:41:23;;;;;;;26.25;19.52;;;;;;;;;;5122412;28;20043;-65
2021/11/13 11:43:50;;;;;;;25.58;19.10;;;;;;;;;;5118790;28;20055;-65
2021/11/13 11:46:16;;;;;;;28.70;20.50;;;;;;;;;;5109705;28;20324;-65
2021/11/13 11:48:43;;;;;;;24.52;19.73;;;;;;;;;;5088327;28;20052;-64
2021/11/13 11:51:09;;;;;;;27.35;19.17;;;;;;;;;;5102928;28;20036;-64
2021/11/13 11:53:35;;;;;;;26.55;18.63;;;;;;;;;;5095098;28;20040;-64
2021/11/13 11:56:01;;;;;;;26.20;19.25;;;;;;;;;;5096306;28;20137;-63
2021/11/13 11:58:27;;;;;;;24.08;18.13;;;;;;;;;;5104354;28;20109;-64
2021/11/13 12:00:56;;;;;;;23.25;18.08;;;;;;;;;;5090607;28;20097;-62
2021/11/13 12:03:24;;;;;;;22.88;18.50;;;;;;;;;;5099268;28;20056;-65
2021/11/13 12:05:51;;;;;;;25.25;19.42;;;;;;;;;;5095128;28;20488;-63
2021/11/13 12:08:22;;;;;;;24.57;18.13;;;;;;;;;;5088753;28;20134;-65
2021/11/13 12:10:48;;;;;;;22.50;17.55;;;;;;;;;;5097797;28;20333;-64
2021/11/13 12:13:24;;;;;;;23.23;17.27;;;;;;;;;;5101200;28;20055;-64
2021/11/13 12:16:00;;;;;;;21.40;16.10;;;;;;;;;;5089170;28;20056;-62
2021/11/13 12:18:27;;;;;;;25.08;17.02;;;;;;;;;;5096770;28;20047;-63
2021/11/13 12:21:03;;;;;;;22.25;15.88;;;;;;;;;;5092964;28;20102;-64
2021/11/13 12:23:34;;;;;;;22.95;16.52;;;;;;;;;;5094095;28;20079;-64
2021/11/13 12:26:04;;;;;;;23.90;16.55;;;;;;;;;;5093853;28;20032;-63
2021/11/13 12:28:31;;;;;;;20.33;16.52;;;;;;;;;;5092595;28;20084;-66
2021/11/13 12:31:06;;;;;;;23.10;15.70;;;;;;;;;;5093793;28;20041;-65
2021/11/13 12:33:32;;;;;;;19.58;15.25;;;;;;;;;;5088348;28;20096;-66
2021/11/13 12:36:00;;;;;;;23.35;17.35;;;;;;;;;;5096724;28;20543;-65
2021/11/13 12:38:26;;;;;;;;;;;;;;;;;;5094735;28;20035;-66
2021/11/13 12:40:52;;;;;;;23.20;16.95;;;;;;;;;;5096772;28;19977;-66
2021/11/13 12:43:18;;;;;;;21.65;16.63;;;;;;;;;;5100763;28;20112;-72
2021/11/13 12:45:44;;;;;;;24.42;16.83;;;;;;;;;;5100395;28;20387;-64
2021/11/13 12:48:10;;;;;;;24.25;17.15;;;;;;;;;;5114049;28;20054;-63
2021/11/13 12:50:37;;;;;;;21.20;17.05;;;;;;;;;;5120201;28;20077;-65
2021/11/13 12:53:03;;;;;;;23.25;16.90;;;;;;;;;;5118758;28;20065;-65
2021/11/13 12:55:37;;;;;;;24.65;16.40;;;;;;;;;;5101716;28;20044;-64
2021/11/13 12:58:06;;;;;;;20.77;16.80;;;;;;;;;;5093769;28;20052;-65
2021/11/13 13:00:37;;;;;;;22.20;15.00;;;;;;;;;;5099131;28;20059;-63
2021/11/13 13:03:07;;;;;;;22.85;17.50;;;;;;;;;;5120809;28;20070;-62
2021/11/13 13:05:33;;;;;;;23.77;17.05;;;;;;;;;;5118283;28;20096;-65
2021/11/13 13:08:00;;;;;;;21.85;15.82;;;;;;;;;;5117478;28;20059;-65
2021/11/13 13:10:28;;;;;;;22.35;16.58;;;;;;;;;;5098785;28;20048;-64
2021/11/13 13:13:05;;;;;;;23.50;16.85;;;;;;;;;;5122083;28;20062;-64
2021/11/13 13:15:32;;;;;;;24.70;17.30;;;;;;;;;;5118891;28;20043;-64
2021/11/13 13:17:59;;;;;;;25.55;17.15;;;;;;;;;;5118812;28;20286;-65
2021/11/13 13:20:28;;;;;;;25.65;17.35;;;;;;;;;;5117365;28;20044;-67
2021/11/13 13:23:05;;;;;;;23.75;16.80;;;;;;;;;;5099162;28;20052;-66
2021/11/13 13:25:33;;;;;;;26.25;16.95;;;;;;;;;;5094916;28;20067;-65
2021/11/13 13:28:00;;;;;;;23.30;17.30;;;;;;;;;;5113093;28;20046;-64
2021/11/13 13:30:27;;;;;;;26.70;16.95;;;;;;;;;;5094320;28;20048;-66
2021/11/13 13:32:55;;;;;;;26.33;18.05;;;;;;;;;;5111920;28;20050;-64
2021/11/13 13:35:21;;;;;;;;;;;;;;;;;;5096742;28;20107;-64
2021/11/13 13:37:48;;;;;;;26.08;17.50;;;;;;;;;;5113210;28;19955;-66
2021/11/13 13:40:21;;;;;;;22.85;16.92;;;;;;;;;;5113960;28;20051;-66
2021/11/13 13:42:47;;;;;;;23.35;16.55;;;;;;;;;;5094987;28;20055;-64
2021/11/13 13:45:13;;;;;;;23.83;16.98;;;;;;;;;;5115832;28;20083;-67
2021/11/13 13:47:40;;;;;;;30.15;18.73;;;;;;;;;;5095734;28;20063;-63
2021/11/13 13:50:07;;;;;;;22.73;17.55;;;;;;;;;;5117580;28;20059;-64
2021/11/13 13:52:38;;;;;;;24.55;17.25;;;;;;;;;;5117017;28;20039;-62
2021/11/13 13:55:05;;;;;;;25.83;16.98;;;;;;;;;;5117065;28;20047;-65
2021/11/13 13:57:31;;;;;;;22.27;16.20;;;;;;;;;;5113071;28;20150;-63
2021/11/13 14:00:00;;;;;;;21.77;15.95;;;;;;;;;;5118955;28;20032;-65
2021/11/13 14:02:27;;;;;;;26.15;17.55;;;;;;;;;;5115059;28;20066;-65
2021/11/13 14:04:55;;;;;;;25.02;16.65;;;;;;;;;;5114788;28;20047;-64
2021/11/13 14:07:24;;;;;;;28.50;16.40;;;;;;;;;;5116874;28;20100;-64
2021/11/13 14:10:05;;;;;;;23.40;16.75;;;;;;;;;;5092275;28;20051;-65
2021/11/13 14:12:51;;;;;;;19.02;14.60;;;;;;;;;;5119151;28;20052;-63
2021/11/13 14:15:21;;;;;;;17.55;13.23;;;;;;;;;;5097915;28;20063;-64
2021/11/13 14:18:07;;;;;;;16.08;12.63;;;;;;;;;;5112309;28;20104;-63